Time;durP1;ratioP1;P1;durP2;ratioP2;P2;SDS_P1;SDS_P2;PMS_P1;PMS_P2;Temp;Humidity;BMP_temperature;BMP_pressure;BME280_temperature;BME280_humidity;BME280_pressure;Samples;Min_cycle;Max_cycle;Signal;HPM_P1;HPM_P2
2021/04/02 00:01:14;;;;;;;2.53;1.30;;;;;;;19.01;52.02;102786.72;5021192;28;20021;-74
2021/04/02 00:03:40;;;;;;;1.20;0.80;;;;;;;19.03;51.95;102790.28;4996526;28;20466;-75
2021/04/02 00:06:09;;;;;;;1.77;0.80;;;;;;;18.99;51.79;102788.41;5006843;28;20033;-73
2021/04/02 00:08:35;;;;;;;1.85;0.95;;;;;;;18.96;51.79;102788.34;5036594;28;20024;-73
2021/04/02 00:11:04;;;;;;;1.20;0.80;;;;;;;19.01;51.86;102797.22;5019363;28;20030;-73
2021/04/02 00:13:49;;;;;;;1.40;0.90;;;;;;;19.02;51.76;102799.88;5019929;28;20040;-72
2021/04/02 00:16:17;;;;;;;1.67;0.90;;;;;;;19.02;51.88;102794.63;5017088;28;20487;-73
2021/04/02 00:18:43;;;;;;;2.75;1.25;;;;;;;19.02;51.64;102792.00;5036968;28;20064;-73
2021/04/02 00:21:10;;;;;;;1.00;0.80;;;;;;;18.90;51.71;102774.25;5022808;28;20384;-73
2021/04/02 00:23:36;;;;;;;3.13;1.00;;;;;;;18.99;51.77;102788.41;5037484;28;20055;-73
2021/04/02 00:26:06;;;;;;;1.33;0.80;;;;;;;18.95;51.71;102794.47;5039175;28;20029;-73
2021/04/02 00:28:31;;;;;;;1.45;1.00;;;;;;;18.93;51.68;102783.94;5038089;28;20151;-71
2021/04/02 00:30:57;;;;;;;2.25;1.00;;;;;;;19.00;51.63;102793.72;5003866;28;20033;-71
2021/04/02 00:33:26;;;;;;;1.60;0.90;;;;;;;19.00;51.67;102790.19;5016956;28;20164;-73
2021/04/02 00:35:52;;;;;;;1.50;1.00;;;;;;;18.92;51.77;102780.44;5016533;28;20055;-73
2021/04/02 00:38:17;;;;;;;1.40;1.00;;;;;;;18.92;51.67;102782.16;5032330;28;20037;-71
2021/04/02 00:40:51;;;;;;;3.20;0.85;;;;;;;18.87;51.67;102774.19;4999610;28;20034;-71
2021/04/02 00:43:18;;;;;;;1.30;1.05;;;;;;;18.93;51.55;102786.56;5016354;28;20029;-73
2021/04/02 00:45:44;;;;;;;1.63;1.00;;;;;;;18.86;51.88;102775.03;5016015;28;20048;-73
2021/04/02 00:48:10;;;;;;;1.55;0.88;;;;;;;18.92;51.54;102780.44;5016589;28;20033;-71
2021/04/02 00:50:44;;;;;;;1.17;0.95;;;;;;;18.95;51.56;102784.88;5000272;28;20542;-73
2021/04/02 00:53:10;;;;;;;1.17;0.93;;;;;;;18.97;51.54;102790.13;5016433;28;20028;-72
2021/04/02 00:55:36;;;;;;;2.25;1.00;;;;;;;18.95;51.65;102787.47;5029412;28;20083;-71
2021/04/02 00:58:04;;;;;;;1.35;0.70;;;;;;;18.90;51.59;102781.22;5037617;28;20021;-73
2021/04/02 01:00:31;;;;;;;1.70;1.10;;;;;;;18.94;51.66;102790.97;5009301;28;20032;-74
2021/04/02 01:02:56;;;;;;;1.20;0.82;;;;;;;18.89;51.58;102784.69;5055660;28;20029;-74
2021/04/02 01:05:26;;;;;;;2.42;1.17;;;;;;;18.90;51.38;102789.97;5022064;28;20120;-73
2021/04/02 01:07:55;;;;;;;2.00;1.00;;;;;;;18.91;51.75;102791.75;5052818;28;20029;-73
2021/04/02 01:10:21;;;;;;;0.68;0.60;;;;;;;18.85;51.55;102781.13;5057329;28;20025;-73
2021/04/02 01:12:48;;;;;;;1.00;0.80;;;;;;;18.93;51.50;102797.03;5032819;28;20032;-73
2021/04/02 01:15:23;;;;;;;2.13;0.95;;;;;;;18.92;51.78;102801.41;5054780;28;20111;-73
2021/04/02 01:17:52;;;;;;;1.33;1.00;;;;;;;18.88;51.51;102783.81;5029829;28;20510;-73
2021/04/02 01:20:22;;;;;;;1.80;0.80;;;;;;;18.88;51.71;102790.78;5056733;28;20535;-73
2021/04/02 01:22:50;;;;;;;2.95;1.10;;;;;;;18.83;51.53;102779.28;5055606;28;20029;-73
2021/04/02 01:25:34;;;;;;;1.33;0.80;;;;;;;18.92;51.54;102800.50;5054802;28;20036;-73
2021/04/02 01:28:06;;;;;;;1.05;0.70;;;;;;;18.90;51.50;102803.09;5028908;28;20075;-74
2021/04/02 01:30:33;;;;;;;1.67;0.80;;;;;;;18.87;51.62;102800.38;5035828;28;20053;-75
2021/04/02 01:33:01;;;;;;;1.38;0.88;;;;;;;18.84;51.58;102794.19;5020363;28;20026;-74
2021/04/02 01:35:35;;;;;;;1.70;0.75;;;;;;;18.88;51.68;102799.53;5050123;28;20029;-74
2021/04/02 01:38:18;;;;;;;1.30;1.13;;;;;;;18.90;51.66;102810.06;5056136;28;20033;-74
2021/04/02 01:40:48;;;;;;;1.02;0.73;;;;;;;18.82;51.50;102795.91;5053365;28;20082;-72
2021/04/02 01:43:17;;;;;;;1.00;0.70;;;;;;;18.88;51.47;102807.41;5036701;28;20033;-71
2021/04/02 01:45:45;;;;;;;1.08;0.70;;;;;;;18.88;51.45;102806.53;5052938;28;20059;-74
2021/04/02 01:48:14;;;;;;;1.48;1.00;;;;;;;18.83;51.54;102803.78;5018824;28;20116;-73
2021/04/02 01:50:43;;;;;;;1.02;0.82;;;;;;;18.79;51.65;102791.47;5033393;28;20108;-71
2021/04/02 01:53:10;;;;;;;1.40;1.00;;;;;;;18.81;51.52;102802.88;5049250;28;20024;-73
2021/04/02 01:55:38;;;;;;;1.85;1.13;;;;;;;18.85;51.74;102811.69;5015753;28;20495;-72
2021/04/02 01:58:05;;;;;;;3.03;0.85;;;;;;;18.81;51.61;102802.00;5048788;28;20013;-75
2021/04/02 02:00:38;;;;;;;1.60;0.90;;;;;;;18.82;51.41;102806.38;5032078;28;20033;-71
2021/04/02 02:03:05;;;;;;;1.60;0.90;;;;;;;18.76;51.39;102796.63;5035445;28;20021;-72
2021/04/02 02:05:33;;;;;;;1.33;0.93;;;;;;;18.84;51.40;102809.91;5015218;28;20087;-71
2021/04/02 02:08:00;;;;;;;1.25;0.68;;;;;;;18.79;51.56;102807.19;5032183;28;20106;-72
2021/04/02 02:10:26;;;;;;;2.20;1.35;;;;;;;18.62;51.46;102770.91;5015400;28;20033;-71
2021/04/02 02:12:53;;;;;;;1.65;0.95;;;;;;;18.78;51.53;102800.16;5048239;28;20026;-73
2021/04/02 02:15:19;;;;;;;1.48;1.00;;;;;;;18.80;51.40;102803.72;5032963;28;20080;-72
2021/04/02 02:17:48;;;;;;;2.47;1.00;;;;;;;18.73;51.40;102791.28;5015143;28;20507;-73
2021/04/02 02:20:16;;;;;;;1.38;0.82;;;;;;;18.81;51.51;102807.22;5034404;28;20077;-71
2021/04/02 02:22:42;;;;;;;0.88;0.65;;;;;;;18.81;51.49;102804.59;5036319;28;20099;-71
2021/04/02 02:25:10;;;;;;;1.38;0.80;;;;;;;18.75;51.35;102802.72;5019403;28;20041;-73
2021/04/02 02:27:37;;;;;;;1.02;0.75;;;;;;;18.80;51.49;102808.97;5052545;28;20043;-74
2021/04/02 02:30:14;;;;;;;1.42;0.93;;;;;;;18.80;51.42;102808.97;5036745;28;20021;-74
2021/04/02 02:32:40;;;;;;;1.08;0.70;;;;;;;18.78;51.45;102799.28;5018088;28;20539;-73
2021/04/02 02:35:08;;;;;;;1.13;0.90;;;;;;;18.80;51.33;102808.97;5020940;28;20167;-71
2021/04/02 02:37:38;;;;;;;2.75;0.77;;;;;;;18.59;51.45;102776.06;5041969;28;20047;-73
2021/04/02 02:40:10;;;;;;;1.27;0.90;;;;;;;18.73;51.37;102795.66;5060608;28;20554;-73
2021/04/02 02:42:37;;;;;;;1.13;0.60;;;;;;;18.73;51.18;102795.66;5044586;28;20030;-73
2021/04/02 02:45:05;;;;;;;1.45;0.77;;;;;;;18.73;51.43;102790.41;5016156;28;20068;-73
2021/04/02 02:47:31;;;;;;;1.42;0.88;;;;;;;18.74;51.22;102795.69;5019795;28;20515;-73
2021/04/02 02:49:58;;;;;;;1.50;0.80;;;;;;;18.73;51.44;102795.66;5006377;28;20049;-73
2021/04/02 02:52:24;;;;;;;1.70;1.10;;;;;;;18.73;51.43;102795.66;5055286;28;20080;-74
2021/04/02 02:54:51;;;;;;;1.48;1.15;;;;;;;18.73;51.50;102799.16;5038994;28;20076;-73
2021/04/02 02:57:19;;;;;;;1.38;0.90;;;;;;;18.69;51.34;102788.59;5019890;28;20029;-73
2021/04/02 02:59:46;;;;;;;0.90;0.73;;;;;;;18.71;51.32;102793.00;5019552;28;20037;-83
2021/04/02 03:02:15;;;;;;;1.38;0.70;;;;;;;18.74;51.27;102793.06;5043025;28;20038;-74
2021/04/02 03:04:42;;;;;;;1.88;1.00;;;;;;;18.70;51.34;102790.31;5035484;28;20032;-73
2021/04/02 03:07:08;;;;;;;1.70;0.90;;;;;;;18.71;51.13;102785.13;5054041;28;20403;-73
2021/04/02 03:09:37;;;;;;;1.95;1.05;;;;;;;18.76;51.30;102788.75;5038207;28;20036;-74
2021/04/02 03:12:04;;;;;;;1.40;1.00;;;;;;;18.72;51.15;102784.28;5038775;28;20031;-75
2021/04/02 03:14:29;;;;;;;1.05;0.77;;;;;;;18.71;51.22;102779.00;5037347;28;20071;-73
2021/04/02 03:16:57;;;;;;;2.00;0.93;;;;;;;18.72;51.50;102775.53;5051535;28;20033;-73
2021/04/02 03:19:25;;;;;;;1.67;1.00;;;;;;;18.68;51.18;102761.50;5017968;28;20061;-75
2021/04/02 03:21:53;;;;;;;1.50;0.85;;;;;;;18.58;51.37;102756.84;5018255;28;20026;-74
2021/04/02 03:24:19;;;;;;;1.17;0.77;;;;;;;18.70;51.13;102780.72;5039332;28;20097;-74
2021/04/02 03:26:50;;;;;;;2.53;0.88;;;;;;;18.73;51.02;102779.94;5038591;28;20057;-73
2021/04/02 03:29:16;;;;;;;1.85;0.65;;;;;;;18.72;51.16;102779.03;5036122;28;20232;-74
2021/04/02 03:31:44;;;;;;;1.67;0.93;;;;;;;18.70;51.36;102778.09;5033782;28;20040;-74
2021/04/02 03:34:12;;;;;;;1.80;1.10;;;;;;;18.62;51.38;102766.56;5017829;28;20029;-72
2021/04/02 03:36:40;;;;;;;1.60;0.75;;;;;;;18.70;51.26;102779.84;5036248;28;20032;-73
2021/04/02 03:39:11;;;;;;;1.58;1.00;;;;;;;18.70;51.13;102775.50;5031589;28;20030;-74
2021/04/02 03:41:38;;;;;;;0.65;0.50;;;;;;;18.63;50.96;102768.34;5035823;28;20034;-73
2021/04/02 03:44:06;;;;;;;1.48;0.77;;;;;;;18.70;51.26;102778.09;5034816;28;20061;-73
2021/04/02 03:46:34;;;;;;;2.35;0.98;;;;;;;18.62;50.92;102761.31;5034258;28;20075;-72
2021/04/02 03:49:02;;;;;;;1.30;1.00;;;;;;;18.66;51.32;102775.41;5039451;28;20021;-74
2021/04/02 03:51:30;;;;;;;1.60;0.88;;;;;;;18.67;51.18;102770.19;5033683;28;20059;-74
2021/04/02 03:54:02;;;;;;;1.80;0.82;;;;;;;18.62;51.32;102763.94;5017628;28;20114;-72
2021/04/02 03:56:31;;;;;;;2.33;0.95;;;;;;;18.64;51.13;102769.22;5053520;28;20103;-74
2021/04/02 03:58:58;;;;;;;2.35;0.80;;;;;;;18.67;51.29;102783.31;5029286;28;20140;-74
2021/04/02 04:01:26;;;;;;;1.20;0.90;;;;;;;18.48;51.33;102744.34;5022842;28;20041;-74
2021/04/02 04:03:55;;;;;;;2.28;1.00;;;;;;;18.65;51.21;102777.13;5055437;28;20474;-74
2021/04/02 04:06:22;;;;;;;1.00;0.73;;;;;;;18.67;51.18;102783.31;5039634;28;20059;-73
2021/04/02 04:08:52;;;;;;;2.85;1.42;;;;;;;18.64;51.46;102774.47;5036250;28;20037;-73
2021/04/02 04:11:19;;;;;;;1.48;0.90;;;;;;;18.54;50.99;102758.50;5057450;28;20031;-74
2021/04/02 04:13:47;;;;;;;2.50;1.30;;;;;;;18.63;51.29;102772.69;5036924;28;20033;-73
2021/04/02 04:16:16;;;;;;;0.95;0.52;;;;;;;18.57;50.99;102763.78;5021829;28;20398;-75
2021/04/02 04:18:46;;;;;;;3.35;1.25;;;;;;;18.65;51.14;102778.88;5056042;28;20036;-75
2021/04/02 04:21:11;;;;;;;1.17;0.70;;;;;;;18.61;51.26;102774.38;5039911;28;20021;-71
2021/04/02 04:23:39;;;;;;;1.58;0.90;;;;;;;18.60;51.02;102769.97;5019377;28;20036;-73
2021/04/02 04:26:05;;;;;;;1.85;0.93;;;;;;;18.61;51.22;102772.66;5035099;28;20041;-73
2021/04/02 04:28:34;;;;;;;1.38;0.90;;;;;;;18.61;51.21;102777.88;5053837;28;20067;-76
2021/04/02 04:31:02;;;;;;;2.22;1.17;;;;;;;18.56;50.88;102771.63;5042679;28;20029;-73
2021/04/02 04:33:29;;;;;;;1.60;0.90;;;;;;;18.57;51.26;102770.75;5038736;28;20025;-73
2021/04/02 04:35:56;;;;;;;1.85;0.90;;;;;;;18.61;51.10;102774.38;5039987;28;20033;-74
2021/04/02 04:38:23;;;;;;;1.65;0.90;;;;;;;18.63;51.07;102786.69;5051316;28;20032;-73
2021/04/02 04:40:52;;;;;;;1.55;0.75;;;;;;;18.61;51.09;102782.25;5031009;28;20033;-74
2021/04/02 04:43:18;;;;;;;0.70;0.63;;;;;;;18.56;51.11;102777.72;5053390;28;20387;-74
2021/04/02 04:45:44;;;;;;;1.33;0.77;;;;;;;18.63;51.12;102783.16;5015527;28;20033;-74
2021/04/02 04:48:10;;;;;;;1.40;0.82;;;;;;;18.59;50.98;102778.69;5019480;28;20028;-74
2021/04/02 04:50:36;;;;;;;0.80;0.60;;;;;;;18.58;50.94;102780.41;5052470;28;20501;-74
2021/04/02 04:53:09;;;;;;;1.23;0.80;;;;;;;18.55;51.10;102780.34;5035787;28;20056;-74
2021/04/02 04:55:37;;;;;;;3.40;1.73;;;;;;;18.55;51.09;102780.34;5036265;28;20045;-73
2021/04/02 04:58:03;;;;;;;1.40;0.90;;;;;;;18.56;51.00;102782.13;5037536;28;20029;-74
2021/04/02 05:00:31;;;;;;;1.73;0.70;;;;;;;18.56;51.14;102784.72;5053637;28;20032;-74
2021/04/02 05:02:58;;;;;;;1.00;0.60;;;;;;;18.59;50.83;102790.06;5036653;28;20040;-74
2021/04/02 05:05:29;;;;;;;1.20;0.63;;;;;;;18.56;51.01;102782.97;5036002;28;20501;-73
2021/04/02 05:07:57;;;;;;;1.77;1.15;;;;;;;18.52;51.02;102781.13;5037603;28;20020;-74
2021/04/02 05:10:23;;;;;;;0.60;0.60;;;;;;;18.52;51.08;102782.88;5035799;28;20482;-73
2021/04/02 05:12:50;;;;;;;1.20;0.70;;;;;;;18.50;50.96;102774.97;5035841;28;20035;-74
2021/04/02 05:15:17;;;;;;;2.75;0.70;;;;;;;18.55;51.07;102785.56;5035350;28;20063;-74
2021/04/02 05:17:44;;;;;;;1.75;1.30;;;;;;;18.51;50.91;102781.97;5035141;28;20103;-74
2021/04/02 05:20:10;;;;;;;1.23;1.05;;;;;;;18.56;50.91;102795.22;5001987;28;20075;-74
2021/04/02 05:22:36;;;;;;;1.13;1.02;;;;;;;18.57;50.88;102794.34;5034787;28;20036;-71
2021/04/02 05:25:03;;;;;;;1.98;0.88;;;;;;;18.61;51.00;102800.59;5019229;28;20524;-73
2021/04/02 05:27:29;;;;;;;2.08;1.05;;;;;;;18.58;50.88;102793.53;5053204;28;20486;-74
2021/04/02 05:29:54;;;;;;;1.95;0.90;;;;;;;18.56;50.80;102788.22;5018795;28;20047;-72
2021/04/02 05:32:20;;;;;;;0.93;0.65;;;;;;;18.57;51.22;102794.34;5019136;28;20033;-74
2021/04/02 05:34:45;;;;;;;1.63;0.85;;;;;;;18.51;50.98;102787.22;5035432;28;20079;-74
2021/04/02 05:37:10;;;;;;;3.60;1.65;;;;;;;18.52;51.05;102791.63;5002015;28;20065;-73
2021/04/02 05:39:36;;;;;;;1.08;0.95;;;;;;;18.52;50.81;102790.72;5001942;28;20031;-73
2021/04/02 05:42:03;;;;;;;1.42;0.98;;;;;;;18.57;51.12;102796.97;5002904;28;20100;-74
2021/04/02 05:44:35;;;;;;;1.63;0.90;;;;;;;18.57;50.82;102796.97;5036388;28;20024;-74
2021/04/02 05:47:06;;;;;;;1.98;1.00;;;;;;;18.57;50.91;102802.19;5019115;28;20017;-74
2021/04/02 05:49:32;;;;;;;1.25;0.90;;;;;;;18.56;51.11;102809.16;5040360;28;20029;-72
2021/04/02 05:51:58;;;;;;;2.20;1.33;;;;;;;18.56;51.26;102805.69;5053441;28;20044;-76
2021/04/02 05:54:40;;;;;;;4.43;0.95;;;;;;;18.54;50.88;102807.38;5022844;28;20048;-72
2021/04/02 05:57:08;;;;;;;2.70;0.80;;;;;;;18.57;51.24;102799.56;5042246;28;20132;-76
2021/04/02 05:59:34;;;;;;;4.78;1.67;;;;;;;18.56;51.46;102796.06;5025837;28;20033;-72
2021/04/02 06:02:01;;;;;;;3.13;1.00;;;;;;;18.61;51.51;102790.09;5025256;28;20039;-74
2021/04/02 06:04:28;;;;;;;2.15;1.00;;;;;;;18.73;51.63;102799.16;5040553;28;20098;-74
2021/04/02 06:06:54;;;;;;;2.70;1.10;;;;;;;18.86;51.13;102803.84;5041153;28;20022;-72
2021/04/02 06:09:20;;;;;;;3.15;1.30;;;;;;;18.90;51.18;102804.81;5022623;28;20034;-73
2021/04/02 06:11:46;;;;;;;2.42;1.40;;;;;;;18.91;51.08;102810.13;5042312;28;20115;-72
2021/04/02 06:14:11;;;;;;;1.88;1.23;;;;;;;18.96;50.99;102806.69;5029415;28;20029;-74
2021/04/02 06:16:37;;;;;;;1.77;1.00;;;;;;;19.02;51.17;102815.59;5046681;28;20137;-74
2021/04/02 06:19:10;;;;;;;1.65;1.17;;;;;;;19.02;51.16;102818.22;5037572;28;20102;-73
2021/04/02 06:21:45;;;;;;;3.17;1.05;;;;;;;19.07;51.06;102831.47;5078609;28;20033;-72
2021/04/02 06:24:12;;;;;;;3.53;1.27;;;;;;;19.12;51.00;102817.59;5046865;28;20044;-72
2021/04/02 06:26:38;;;;;;;3.10;1.23;;;;;;;19.18;50.98;102823.00;5041368;28;20036;-75
2021/04/02 06:29:03;;;;;;;3.25;1.70;;;;;;;19.03;51.14;102806.00;5048427;28;20021;-75
2021/04/02 06:31:31;;;;;;;1.95;1.00;;;;;;;19.15;51.04;102822.03;5024865;28;20025;-75
2021/04/02 06:33:56;;;;;;;6.70;1.20;;;;;;;19.27;50.72;102831.06;5052171;28;22457;-74
2021/04/02 06:36:28;;;;;;;2.42;1.30;;;;;;;19.27;50.92;102823.19;5046557;28;20023;-74
2021/04/02 06:39:05;;;;;;;3.47;1.73;;;;;;;19.27;50.95;102838.94;5043524;28;20040;-75
2021/04/02 06:41:33;;;;;;;2.13;0.95;;;;;;;19.21;50.96;102837.94;5030782;28;20033;-74
2021/04/02 06:44:00;;;;;;;2.05;1.42;;;;;;;19.27;51.25;102853.78;5017559;28;20033;-76
2021/04/02 06:46:32;;;;;;;2.10;1.10;;;;;;;19.34;51.03;102840.00;5034213;28;20031;-73
2021/04/02 06:49:12;;;;;;;4.38;1.35;;;;;;;19.29;51.59;102825.88;5041248;28;20039;-73
2021/04/02 06:51:39;;;;;;;6.28;1.40;;;;;;;19.33;51.54;102838.22;5052849;28;20033;-73
2021/04/02 06:54:06;;;;;;;4.75;1.38;;;;;;;19.37;51.35;102839.16;5035926;28;20120;-73
2021/04/02 06:56:34;;;;;;;3.75;1.05;;;;;;;19.43;51.42;102841.94;5019258;28;20119;-73
2021/04/02 06:59:00;;;;;;;5.53;1.23;;;;;;;19.41;50.96;102862.88;5019156;28;20029;-73
2021/04/02 07:01:32;;;;;;;3.33;1.52;;;;;;;19.30;51.16;102832.88;5029036;28;20029;-74
2021/04/02 07:03:59;;;;;;;7.60;2.75;;;;;;;19.46;51.22;102849.88;5053758;28;20033;-74
2021/04/02 07:06:26;;;;;;;3.40;1.60;;;;;;;19.47;51.10;102859.53;5003659;28;20052;-74
2021/04/02 07:08:52;;;;;;;3.22;1.75;;;;;;;19.38;51.22;102852.31;5020735;28;20035;-75
2021/04/02 07:11:18;;;;;;;6.53;2.10;;;;;;;19.37;51.04;102850.53;5038851;28;20475;-75
2021/04/02 07:13:52;;;;;;;2.85;1.42;;;;;;;19.44;51.04;102857.72;5021960;28;20044;-75
2021/04/02 07:16:19;;;;;;;5.90;1.75;;;;;;;19.38;50.98;102860.19;5030209;28;20360;-73
2021/04/02 07:18:46;;;;;;;4.53;1.67;;;;;;;19.40;51.18;102865.47;5017631;28;20026;-74
2021/04/02 07:21:13;;;;;;;2.10;1.20;;;;;;;19.45;50.98;102875.22;5011332;28;20030;-74
2021/04/02 07:23:39;;;;;;;2.92;1.63;;;;;;;19.44;50.94;102864.69;5015143;28;20057;-74
2021/04/02 07:26:05;;;;;;;6.93;1.98;;;;;;;19.46;50.58;102868.25;5020562;28;20037;-74
2021/04/02 07:28:31;;;;;;;4.82;1.40;;;;;;;19.42;50.80;102871.63;5001055;28;20025;-72
2021/04/02 07:30:58;;;;;;;4.57;1.20;;;;;;;19.47;50.79;102878.78;5037642;28;20044;-74
2021/04/02 07:33:25;;;;;;;2.90;2.03;;;;;;;19.47;50.82;102862.16;5036137;28;20032;-74
2021/04/02 07:36:01;;;;;;;3.72;1.52;;;;;;;19.52;50.91;102882.41;5023302;28;20402;-74
2021/04/02 07:38:32;;;;;;;3.75;1.88;;;;;;;19.53;50.73;102888.53;5033758;28;20053;-77
2021/04/02 07:41:05;;;;;;;3.95;1.45;;;;;;;19.56;50.34;102884.25;5017741;28;20052;-73
2021/04/02 07:43:32;;;;;;;3.72;1.23;;;;;;;19.56;50.57;102886.88;4999250;28;20021;-75
2021/04/02 07:46:13;;;;;;;4.90;1.73;;;;;;;19.46;50.83;102869.13;5001286;28;20030;-76
2021/04/02 07:48:41;;;;;;;4.85;1.80;;;;;;;19.52;50.72;102890.28;5025898;28;20344;-73
2021/04/02 07:51:07;;;;;;;3.80;1.30;;;;;;;19.44;51.05;102886.56;5017444;28;20029;-74
2021/04/02 07:53:33;;;;;;;2.17;1.20;;;;;;;19.47;51.25;102889.28;5018901;28;20025;-73
2021/04/02 07:56:15;;;;;;;3.83;1.85;;;;;;;19.45;51.14;102890.97;5029426;28;20075;-73
2021/04/02 07:58:40;;;;;;;4.18;1.33;;;;;;;19.44;50.79;102886.56;5057723;28;20079;-76
2021/04/02 08:01:06;;;;;;;2.22;1.27;;;;;;;19.43;51.16;102889.16;5036850;28;20037;-72
2021/04/02 08:03:34;;;;;;;2.70;1.40;;;;;;;19.41;51.26;102888.22;5025492;28;20027;-76
2021/04/02 08:06:09;;;;;;;4.80;1.63;;;;;;;19.38;51.27;102891.66;5027340;28;20025;-73
2021/04/02 08:08:44;;;;;;;3.83;1.65;;;;;;;19.36;51.21;102888.09;5023499;28;20430;-74
2021/04/02 08:11:30;;;;;;;4.00;1.70;;;;;;;19.33;51.48;102890.69;5054492;28;20029;-75
2021/04/02 08:13:58;;;;;;;7.63;1.88;;;;;;;19.27;49.01;102903.63;5032476;28;20036;-74
2021/04/02 08:16:34;;;;;;;3.72;2.00;;;;;;;19.27;50.78;102904.53;5043708;28;20041;-73
2021/04/02 08:19:08;;;;;;;5.43;1.70;;;;;;;19.27;50.86;102899.28;5052700;28;20033;-74
2021/04/02 08:21:36;;;;;;;8.02;1.85;;;;;;;19.29;50.73;102907.19;5039044;28;20483;-73
2021/04/02 08:24:06;;;;;;;5.28;1.85;;;;;;;19.30;50.87;102902.81;5039854;28;20110;-76
2021/04/02 08:26:33;;;;;;;5.72;2.38;;;;;;;19.24;50.71;102882.56;5024258;28;20044;-74
2021/04/02 08:29:00;;;;;;;5.95;2.13;;;;;;;19.24;50.72;102885.19;5022888;28;20045;-74
2021/04/02 08:31:26;;;;;;;9.13;2.35;;;;;;;19.23;50.50;102886.03;5053884;28;20017;-74
2021/04/02 08:33:58;;;;;;;5.32;1.67;;;;;;;19.23;50.64;102892.16;5027084;28;20045;-75
2021/04/02 08:36:24;;;;;;;4.93;1.55;;;;;;;19.21;50.79;102891.25;5019926;28;20029;-75
2021/04/02 08:38:51;;;;;;;6.00;1.58;;;;;;;19.13;50.70;102878.81;5028319;28;20407;-75
2021/04/02 08:41:21;;;;;;;3.65;1.70;;;;;;;19.22;51.00;102892.13;5007442;28;20072;-74
2021/04/02 08:43:47;;;;;;;4.03;1.73;;;;;;;19.22;50.93;102890.41;5038775;28;20029;-74
2021/04/02 08:46:14;;;;;;;3.95;1.60;;;;;;;19.19;50.67;102903.47;5039539;28;20360;-75
2021/04/02 08:48:40;;;;;;;2.90;1.63;;;;;;;19.15;50.87;102898.97;5038625;28;20079;-74
2021/04/02 08:51:06;;;;;;;5.43;1.75;;;;;;;19.14;50.84;102909.44;5039570;28;20025;-75
2021/04/02 08:53:41;;;;;;;3.25;1.73;;;;;;;19.20;50.88;102914.84;5055840;28;20426;-75
2021/04/02 08:56:07;;;;;;;4.57;1.98;;;;;;;19.20;50.79;102912.22;5017169;28;20050;-76
2021/04/02 08:58:35;;;;;;;3.60;1.35;;;;;;;19.20;51.04;102914.84;5000935;28;20494;-75
2021/04/02 09:01:03;;;;;;;5.00;1.92;;;;;;;19.17;50.92;102905.16;4984574;28;20061;-75
2021/04/02 09:03:29;;;;;;;1.90;1.35;;;;;;;19.14;50.87;102901.56;5017682;28;20471;-75
2021/04/02 09:05:55;;;;;;;5.75;1.45;;;;;;;19.17;50.63;102912.13;5018663;28;20056;-75
2021/04/02 09:08:20;;;;;;;2.35;1.40;;;;;;;19.12;50.75;102908.50;4999358;28;20025;-74
2021/04/02 09:10:47;;;;;;;3.85;1.70;;;;;;;19.13;50.70;102903.28;5019347;28;20037;-74
2021/04/02 09:13:13;;;;;;;7.57;1.70;;;;;;;19.12;50.97;102896.28;5002849;28;20476;-75
2021/04/02 09:15:38;;;;;;;2.70;1.63;;;;;;;19.10;50.92;102900.59;4999827;28;20038;-74
2021/04/02 09:18:33;;;;;;;6.18;1.67;;;;;;;19.15;50.93;102911.19;5015336;28;20030;-76
2021/04/02 09:20:59;;;;;;;4.05;1.63;;;;;;;19.08;50.78;102901.41;5009945;28;20419;-75
2021/04/02 09:23:25;;;;;;;3.05;2.25;;;;;;;19.11;50.65;102904.09;5020902;28;20038;-75
2021/04/02 09:25:52;;;;;;;5.28;1.50;;;;;;;19.06;51.04;102897.88;5017647;28;20030;-75
2021/04/02 09:28:26;;;;;;;3.03;1.50;;;;;;;19.09;50.81;102898.81;4999500;28;20018;-74
2021/04/02 09:31:23;;;;;;;2.35;1.40;;;;;;;19.11;50.85;102904.97;5029116;28;20124;-74
2021/04/02 09:33:51;;;;;;;1.77;1.17;;;;;;;19.12;50.85;102906.75;5010164;28;20029;-75
2021/04/02 09:36:18;;;;;;;2.22;1.70;;;;;;;19.07;50.85;102897.03;5019127;28;20060;-75
2021/04/02 09:38:46;;;;;;;2.20;1.30;;;;;;;19.07;50.94;102895.28;4986497;28;20102;-75
2021/04/02 09:41:13;;;;;;;3.47;2.28;;;;;;;19.07;50.60;102903.16;5020345;28;20030;-74
2021/04/02 09:43:52;;;;;;;4.60;1.88;;;;;;;19.09;50.67;102908.41;5019974;28;20029;-78
2021/04/02 09:46:44;;;;;;;2.08;1.10;;;;;;;19.08;50.80;102902.31;5022041;28;20043;-79
2021/04/02 09:49:11;;;;;;;4.95;1.65;;;;;;;19.11;50.80;102910.22;5022705;28;20032;-79
2021/04/02 09:51:42;;;;;;;2.08;1.30;;;;;;;19.10;50.76;102905.81;5024100;28;20025;-78
2021/04/02 09:54:08;;;;;;;4.32;1.50;;;;;;;19.11;50.69;102906.72;5025104;28;20021;-78
2021/04/02 09:56:34;;;;;;;2.80;1.42;;;;;;;19.11;50.72;102909.34;5010613;28;20032;-79
2021/04/02 09:58:59;;;;;;;2.50;1.65;;;;;;;19.03;50.56;102884.66;5043295;28;20036;-79
2021/04/02 10:01:25;;;;;;;5.03;1.35;;;;;;;19.07;50.61;102897.03;5026653;28;20024;-79
2021/04/02 10:03:51;;;;;;;2.55;1.13;;;;;;;19.05;50.51;102901.34;5059554;28;20113;-77
2021/04/02 10:06:17;;;;;;;2.00;1.42;;;;;;;19.06;50.81;102914.50;5009659;28;20051;-76
2021/04/02 10:08:43;;;;;;;1.73;1.35;;;;;;;18.96;50.44;102898.47;5024664;28;20097;-75
2021/04/02 10:11:08;;;;;;;2.70;1.75;;;;;;;19.10;50.81;102907.56;5008365;28;20060;-75
2021/04/02 10:13:34;;;;;;;3.45;1.45;;;;;;;19.10;50.65;102910.19;5041950;28;20437;-75
2021/04/02 10:15:59;;;;;;;1.60;0.90;;;;;;;19.00;50.47;102889.84;5022466;28;20032;-75
2021/04/02 10:18:27;;;;;;;2.63;1.30;;;;;;;19.09;50.50;102896.19;5042294;28;20078;-75
2021/04/02 10:20:52;;;;;;;3.92;1.60;;;;;;;19.05;50.62;102899.59;5060008;28;20467;-76
2021/04/02 10:23:17;;;;;;;1.95;1.23;;;;;;;19.10;50.72;102895.34;5041985;28;20039;-75
2021/04/02 10:25:43;;;;;;;3.50;1.25;;;;;;;19.09;50.63;102900.53;5021663;28;20037;-74
2021/04/02 10:28:08;;;;;;;2.85;1.50;;;;;;;19.13;50.63;102913.78;5037590;28;20084;-75
2021/04/02 10:30:34;;;;;;;4.90;1.75;;;;;;;19.09;50.72;102914.53;5056911;28;20026;-74
2021/04/02 10:32:59;;;;;;;2.70;1.48;;;;;;;19.05;50.61;102912.72;5023034;28;20037;-74
2021/04/02 10:35:27;;;;;;;1.95;1.30;;;;;;;19.02;50.72;102912.63;5023685;28;20028;-75
2021/04/02 10:37:53;;;;;;;2.03;1.30;;;;;;;19.09;50.65;102918.91;5007951;28;20032;-74
2021/04/02 10:40:19;;;;;;;1.70;1.40;;;;;;;19.05;50.53;102915.34;5009479;28;20036;-75
2021/04/02 10:42:44;;;;;;;2.40;1.60;;;;;;;19.06;50.55;102917.13;5045312;28;20025;-75
2021/04/02 10:45:10;;;;;;;3.65;1.25;;;;;;;19.08;50.61;102911.91;5012351;28;20186;-75
2021/04/02 10:47:36;;;;;;;2.42;1.30;;;;;;;19.08;50.46;102914.53;5044325;28;20021;-75
2021/04/02 10:50:02;;;;;;;1.98;1.40;;;;;;;19.04;50.67;102908.31;5039597;28;20033;-74
2021/04/02 10:52:27;;;;;;;2.30;1.17;;;;;;;18.96;50.60;102901.06;4992144;28;20053;-75
2021/04/02 10:54:52;;;;;;;1.70;1.35;;;;;;;18.99;50.45;102904.69;5005631;28;20041;-75
2021/04/02 10:57:18;;;;;;;1.33;1.10;;;;;;;19.02;50.55;102903.88;5009308;28;20038;-75
2021/04/02 10:59:43;;;;;;;2.65;1.20;;;;;;;19.07;50.60;102918.00;4992627;28;20096;-75
2021/04/02 11:02:09;;;;;;;2.30;1.77;;;;;;;18.97;50.50;102902.84;5024806;28;20029;-75
2021/04/02 11:04:35;;;;;;;1.98;1.10;;;;;;;19.00;50.59;102909.06;5013746;28;20375;-74
2021/04/02 11:07:00;;;;;;;1.15;0.85;;;;;;;19.03;50.46;102916.13;5033524;28;20025;-75
2021/04/02 11:09:25;;;;;;;3.08;1.35;;;;;;;19.02;50.58;102912.63;5023586;28;20025;-75
2021/04/02 11:11:51;;;;;;;2.40;1.40;;;;;;;19.00;50.42;102906.44;5040898;28;20029;-74
2021/04/02 11:14:16;;;;;;;2.30;1.20;;;;;;;19.00;50.47;102903.81;5021521;28;20035;-74
2021/04/02 11:16:41;;;;;;;2.60;1.30;;;;;;;19.02;50.17;102902.13;5040009;28;20471;-75
2021/04/02 11:19:07;;;;;;;4.25;1.83;;;;;;;19.02;50.57;102891.66;5043501;28;21880;-74
2021/04/02 11:21:32;;;;;;;2.35;1.45;;;;;;;18.95;50.43;102871.38;5027172;28;20029;-74
2021/04/02 11:23:58;;;;;;;2.63;1.27;;;;;;;19.00;50.46;102890.72;5040699;28;20021;-74
2021/04/02 11:26:24;;;;;;;2.53;1.00;;;;;;;19.02;50.29;102894.28;5025596;28;20021;-75
2021/04/02 11:28:50;;;;;;;1.65;1.15;;;;;;;19.05;50.42;102898.72;5019079;28;20033;-75